Wetterdaten: Woche 13.04.26 - 19.04.26 (KW16)
Datum Zeit Temp. Aussen Temp. o. S. Temp +5cm Feuchte Auss Luftdruck Regen Sonnenschein Solar Windböen Empfang
13.04.2026 00:00 7,4 °C 5,8 °C 2,6 °C 84 % 1015,3 hPa 0,0 l/m² 0,00 h 0 W/m² 0,1 km/h (0 Bft) 98,85 %
13.04.2026 01:00 6,6 °C 5,6 °C 2,2 °C 86 % 1015,2 hPa 0,0 l/m² 0,00 h 0 W/m² 0,3 km/h (0 Bft) 98,08 %
13.04.2026 02:00 6,2 °C 5,4 °C 2,2 °C 88 % 1014,7 hPa 0,0 l/m² 0,00 h 0 W/m² 0,2 km/h (0 Bft) 96,29 %
13.04.2026 03:00 6,0 °C 5,0 °C 2,1 °C 88 % 1014,4 hPa 0,0 l/m² 0,00 h 0 W/m² 0,0 km/h (0 Bft) 98,22 %
13.04.2026 04:00 5,6 °C 4,4 °C 1,6 °C 89 % 1014,1 hPa 0,0 l/m² 0,00 h 0 W/m² 0,0 km/h (0 Bft) 97,28 %
13.04.2026 05:00 5,3 °C 4,4 °C 1,7 °C 90 % 1014,0 hPa 0,0 l/m² 0,00 h 0 W/m² 0,7 km/h (0 Bft) 98,67 %
13.04.2026 06:00 5,2 °C 4,4 °C 1,3 °C 91 % 1013,8 hPa 0,0 l/m² 0,00 h 3 W/m² 0,4 km/h (0 Bft) 95,03 %
13.04.2026 07:00 5,2 °C 5,1 °C 1,9 °C 92 % 1013,7 hPa 0,0 l/m² 0,00 h 20 W/m² 0,2 km/h (0 Bft) 96,36 %
13.04.2026 08:00 6,2 °C 6,9 °C 3,1 °C 93 % 1013,7 hPa 0,0 l/m² 0,00 h 51 W/m² 0,4 km/h (0 Bft) 98,14 %
13.04.2026 09:00 7,6 °C 8,2 °C 4,3 °C 92 % 1013,5 hPa 0,0 l/m² 0,00 h 72 W/m² 2,6 km/h (1 Bft) 97,35 %
13.04.2026 10:00 8,8 °C 9,7 °C 5,4 °C 88 % 1013,3 hPa 0,0 l/m² 0,00 h 126 W/m² 4,0 km/h (1 Bft) 98,57 %
13.04.2026 11:00 10,1 °C 11,2 °C 6,6 °C 82 % 1013,2 hPa 0,0 l/m² 0,00 h 179 W/m² 3,6 km/h (1 Bft) 96,62 %
13.04.2026 12:00 11,2 °C 12,1 °C 7,4 °C 77 % 1013,1 hPa 0,0 l/m² 0,00 h 189 W/m² 5,3 km/h (1 Bft) 95,18 %
13.04.2026 13:00 11,5 °C 11,3 °C 6,7 °C 76 % 1013,3 hPa 0,0 l/m² 0,00 h 118 W/m² 7,2 km/h (2 Bft) 98,02 %
13.04.2026 14:00 10,8 °C 11,7 °C 6,6 °C 82 % 1013,4 hPa 0,0 l/m² 0,00 h 208 W/m² 4,5 km/h (1 Bft) 97,45 %
13.04.2026 15:00 10,7 °C 10,7 °C 6,3 °C 83 % 1013,4 hPa 0,2 l/m² 0,00 h 101 W/m² 6,6 km/h (2 Bft) 95,61 %
13.04.2026 16:00 10,1 °C 10,0 °C 5,6 °C 89 % 1013,4 hPa 0,0 l/m² 0,00 h 88 W/m² 6,9 km/h (2 Bft) 97,42 %
13.04.2026 17:00 9,7 °C 9,5 °C 5,3 °C 91 % 1013,4 hPa 0,5 l/m² 0,00 h 83 W/m² 8,8 km/h (2 Bft) 96,66 %
13.04.2026 18:00 9,4 °C 9,3 °C 5,0 °C 92 % 1013,6 hPa 0,0 l/m² 0,00 h 69 W/m² 6,1 km/h (2 Bft) 96,82 %
13.04.2026 19:00 9,3 °C 9,0 °C 5,0 °C 91 % 1013,9 hPa 0,0 l/m² 0,00 h 35 W/m² 5,2 km/h (1 Bft) 98,65 %
13.04.2026 20:00 9,2 °C 8,3 °C 4,7 °C 91 % 1014,4 hPa 0,0 l/m² 0,00 h 10 W/m² 4,2 km/h (1 Bft) 97,01 %
13.04.2026 21:00 8,7 °C 7,8 °C 4,4 °C 92 % 1015,1 hPa 0,0 l/m² 0,00 h 0 W/m² 1,2 km/h (1 Bft) 98,21 %
13.04.2026 22:00 8,6 °C 7,7 °C 4,1 °C 93 % 1015,3 hPa 0,0 l/m² 0,00 h 0 W/m² 0,3 km/h (0 Bft) 96,14 %
13.04.2026 23:00 8,2 °C 7,0 °C 3,6 °C 94 % 1015,4 hPa 0,0 l/m² 0,00 h 0 W/m² 0,1 km/h (0 Bft) 98,72 %
14.04.2026 00:00 7,7 °C 6,7 °C 3,2 °C 94 % 1015,7 hPa 0,0 l/m² 0,00 h 0 W/m² 0,0 km/h (0 Bft) 97,84 %
14.04.2026 01:00 7,4 °C 6,3 °C 3,0 °C 95 % 1016,1 hPa 0,0 l/m² 0,00 h 0 W/m² 0,4 km/h (0 Bft) 96,07 %
14.04.2026 02:00 6,8 °C 5,5 °C 2,3 °C 95 % 1016,4 hPa 0,0 l/m² 0,00 h 0 W/m² 0,9 km/h (0 Bft) 99,32 %
14.04.2026 03:00 5,6 °C 3,9 °C 0,9 °C 95 % 1016,8 hPa 0,0 l/m² 0,00 h 0 W/m² 0,1 km/h (0 Bft) 97,00 %
14.04.2026 04:00 4,7 °C 3,2 °C 0,2 °C 94 % 1017,2 hPa 0,0 l/m² 0,00 h 0 W/m² 0,0 km/h (0 Bft) 97,35 %
14.04.2026 05:00 4,0 °C 2,4 °C -0,5 °C 95 % 1017,8 hPa 0,0 l/m² 0,00 h 0 W/m² 0,0 km/h (0 Bft) 95,06 %
14.04.2026 06:00 3,1 °C 1,9 °C -1,0 °C 95 % 1018,3 hPa 0,0 l/m² 0,00 h 5 W/m² 0,0 km/h (0 Bft) 96,94 %
14.04.2026 07:00 2,9 °C 2,5 °C -0,4 °C 95 % 1019,1 hPa 0,0 l/m² 0,00 h 21 W/m² 1,3 km/h (1 Bft) 97,73 %
14.04.2026 08:00 4,6 °C 5,0 °C 1,5 °C 97 % 1019,8 hPa 0,2 l/m² 0,13 h 68 W/m² 2,3 km/h (1 Bft) 97,36 %
14.04.2026 09:00 7,5 °C 14,1 °C 5,0 °C 97 % 1020,5 hPa 0,0 l/m² 1,00 h 376 W/m² 1,9 km/h (1 Bft) 96,72 %
14.04.2026 10:00 10,9 °C 14,2 °C 9,4 °C 87 % 1020,8 hPa 0,0 l/m² 1,00 h 528 W/m² 6,1 km/h (2 Bft) 95,06 %
14.04.2026 11:00 12,9 °C 15,5 °C 10,6 °C 78 % 1021,2 hPa 0,0 l/m² 0,70 h 486 W/m² 8,6 km/h (2 Bft) 96,72 %
14.04.2026 12:00 14,1 °C 20,3 °C 15,3 °C 70 % 1021,5 hPa 0,0 l/m² 0,63 h 594 W/m² 11,0 km/h (2 Bft) 95,79 %
14.04.2026 13:00 15,5 °C 20,3 °C 14,0 °C 62 % 1021,6 hPa 0,0 l/m² 0,53 h 553 W/m² 12,7 km/h (3 Bft) 97,01 %
14.04.2026 14:00 16,1 °C 20,6 °C 12,6 °C 61 % 1021,7 hPa 0,0 l/m² 0,53 h 543 W/m² 10,0 km/h (2 Bft) 98,60 %
14.04.2026 15:00 16,2 °C 21,3 °C 12,5 °C 63 % 1021,7 hPa 0,0 l/m² 0,73 h 559 W/m² 6,9 km/h (2 Bft) 98,09 %
14.04.2026 16:00 17,0 °C 20,0 °C 13,1 °C 59 % 1021,7 hPa 0,0 l/m² 0,67 h 407 W/m² 8,9 km/h (2 Bft) 96,51 %
14.04.2026 17:00 17,2 °C 21,5 °C 13,4 °C 57 % 1021,6 hPa 0,0 l/m² 1,00 h 446 W/m² 8,9 km/h (2 Bft) 98,22 %
14.04.2026 18:00 17,6 °C 20,2 °C 13,0 °C 54 % 1021,7 hPa 0,0 l/m² 0,73 h 219 W/m² 6,3 km/h (2 Bft) 97,15 %
14.04.2026 19:00 15,9 °C 14,9 °C 11,0 °C 59 % 1022,0 hPa 0,0 l/m² 0,00 h 43 W/m² 3,5 km/h (1 Bft) 97,20 %
14.04.2026 20:00 14,5 °C 12,1 °C 7,9 °C 64 % 1022,3 hPa 0,0 l/m² 0,00 h 10 W/m² 0,1 km/h (0 Bft) 97,81 %
14.04.2026 21:00 12,4 °C 9,5 °C 5,6 °C 73 % 1022,8 hPa 0,0 l/m² 0,00 h 0 W/m² 0,0 km/h (0 Bft) 96,04 %
14.04.2026 22:00 10,4 °C 7,9 °C 4,6 °C 80 % 1023,1 hPa 0,0 l/m² 0,00 h 0 W/m² 0,1 km/h (0 Bft) 98,51 %
14.04.2026 23:00 9,0 °C 6,9 °C 3,7 °C 85 % 1023,3 hPa 0,0 l/m² 0,00 h 0 W/m² 0,0 km/h (0 Bft) 96,29 %
15.04.2026 00:00 7,9 °C 6,2 °C 3,1 °C 88 % 1023,3 hPa 0,0 l/m² 0,00 h 0 W/m² 0,0 km/h (0 Bft) 98,59 %
15.04.2026 01:00 7,2 °C 6,1 °C 3,0 °C 89 % 1023,1 hPa 0,0 l/m² 0,00 h 0 W/m² 0,9 km/h (0 Bft) 95,41 %
15.04.2026 02:00 7,3 °C 6,8 °C 3,6 °C 90 % 1023,0 hPa 0,0 l/m² 0,00 h 0 W/m² 1,5 km/h (1 Bft) 97,70 %
15.04.2026 03:00 7,1 °C 6,1 °C 3,0 °C 89 % 1022,8 hPa 0,0 l/m² 0,00 h 0 W/m² 2,5 km/h (1 Bft) 96,68 %
15.04.2026 04:00 6,9 °C 6,1 °C 3,2 °C 89 % 1022,7 hPa 0,0 l/m² 0,00 h 0 W/m² 6,8 km/h (2 Bft) 96,93 %
15.04.2026 05:00 6,8 °C 5,8 °C 2,8 °C 88 % 1022,7 hPa 0,0 l/m² 0,00 h 0 W/m² 8,4 km/h (2 Bft) 97,15 %
15.04.2026 06:00 6,4 °C 5,6 °C 2,2 °C 88 % 1022,6 hPa 0,0 l/m² 0,00 h 7 W/m² 12,2 km/h (3 Bft) 98,22 %
15.04.2026 07:00 6,6 °C 6,3 °C 2,8 °C 87 % 1022,8 hPa 0,0 l/m² 0,00 h 24 W/m² 12,2 km/h (3 Bft) 97,48 %
15.04.2026 08:00 8,0 °C 8,0 °C 4,2 °C 85 % 1022,9 hPa 0,0 l/m² 0,13 h 81 W/m² 15,8 km/h (3 Bft) 96,92 %
15.04.2026 09:00 10,8 °C 14,8 °C 7,2 °C 77 % 1022,9 hPa 0,0 l/m² 1,00 h 383 W/m² 17,2 km/h (3 Bft) 98,92 %
15.04.2026 10:00 13,7 °C 15,9 °C 11,2 °C 69 % 1022,8 hPa 0,0 l/m² 1,00 h 539 W/m² 16,5 km/h (3 Bft) 95,82 %
15.04.2026 11:00 16,1 °C 18,8 °C 13,4 °C 63 % 1022,6 hPa 0,0 l/m² 0,80 h 488 W/m² 14,0 km/h (3 Bft) 96,93 %
15.04.2026 12:00 18,6 °C 26,1 °C 20,5 °C 54 % 1021,9 hPa 0,0 l/m² 1,00 h 758 W/m² 16,7 km/h (3 Bft) 96,55 %
15.04.2026 13:00 19,8 °C 25,5 °C 19,4 °C 47 % 1021,3 hPa 0,0 l/m² 1,00 h 719 W/m² 17,8 km/h (3 Bft) 98,50 %
15.04.2026 14:00 20,4 °C 24,4 °C 16,9 °C 46 % 1020,8 hPa 0,0 l/m² 1,00 h 583 W/m² 15,6 km/h (3 Bft) 97,95 %
15.04.2026 15:00 20,6 °C 24,2 °C 16,6 °C 46 % 1020,3 hPa 0,0 l/m² 1,00 h 539 W/m² 14,0 km/h (3 Bft) 97,18 %
15.04.2026 16:00 21,5 °C 25,6 °C 17,2 °C 45 % 1019,6 hPa 0,0 l/m² 1,00 h 593 W/m² 14,9 km/h (3 Bft) 96,53 %
15.04.2026 17:00 21,6 °C 24,7 °C 17,0 °C 45 % 1019,0 hPa 0,0 l/m² 1,00 h 426 W/m² 15,7 km/h (3 Bft) 99,63 %
15.04.2026 18:00 21,0 °C 22,3 °C 16,0 °C 46 % 1019,0 hPa 0,0 l/m² 0,70 h 194 W/m² 12,6 km/h (3 Bft) 96,06 %
15.04.2026 19:00 19,5 °C 18,0 °C 14,1 °C 49 % 1019,0 hPa 0,0 l/m² 0,00 h 36 W/m² 6,1 km/h (2 Bft) 98,23 %
15.04.2026 20:00 18,2 °C 16,1 °C 11,8 °C 58 % 1019,0 hPa 0,0 l/m² 0,00 h 10 W/m² 0,3 km/h (0 Bft) 97,52 %
15.04.2026 21:00 16,7 °C 15,3 °C 11,5 °C 61 % 1019,0 hPa 0,0 l/m² 0,00 h 0 W/m² 3,7 km/h (1 Bft) 96,43 %
15.04.2026 22:00 15,9 °C 14,6 °C 11,1 °C 62 % 1019,1 hPa 0,0 l/m² 0,00 h 0 W/m² 3,5 km/h (1 Bft) 98,36 %
15.04.2026 23:00 15,4 °C 14,4 °C 10,6 °C 66 % 1019,4 hPa 0,0 l/m² 0,00 h 0 W/m² 2,2 km/h (1 Bft) 98,36 %
16.04.2026 00:00 15,3 °C 14,4 °C 10,7 °C 66 % 1019,7 hPa 0,0 l/m² 0,00 h 0 W/m² 2,9 km/h (1 Bft) 94,73 %
16.04.2026 01:00 15,1 °C 14,3 °C 10,5 °C 66 % 1019,7 hPa 0,0 l/m² 0,00 h 0 W/m² 4,9 km/h (1 Bft) 99,23 %
16.04.2026 02:00 14,4 °C 12,9 °C 9,3 °C 70 % 1019,6 hPa 0,0 l/m² 0,00 h 0 W/m² 5,4 km/h (1 Bft) 96,12 %
16.04.2026 03:00 13,3 °C 11,9 °C 8,3 °C 74 % 1019,5 hPa 0,0 l/m² 0,00 h 0 W/m² 2,7 km/h (1 Bft) 98,02 %
16.04.2026 04:00 12,7 °C 11,9 °C 8,1 °C 76 % 1019,7 hPa 0,0 l/m² 0,00 h 0 W/m² 3,7 km/h (1 Bft) 97,68 %
16.04.2026 05:00 12,8 °C 12,2 °C 8,5 °C 78 % 1020,1 hPa 0,0 l/m² 0,00 h 0 W/m² 3,4 km/h (1 Bft) 97,12 %
16.04.2026 06:00 12,6 °C 11,6 °C 7,3 °C 84 % 1020,6 hPa 0,5 l/m² 0,00 h 0 W/m² 3,0 km/h (1 Bft) 98,00 %
16.04.2026 07:00 12,1 °C 11,1 °C 7,0 °C 91 % 1021,1 hPa 0,7 l/m² 0,00 h 16 W/m² 3,0 km/h (1 Bft) 97,25 %
16.04.2026 08:00 12,3 °C 11,9 °C 7,5 °C 94 % 1021,3 hPa 0,0 l/m² 0,00 h 75 W/m² 4,1 km/h (1 Bft) 98,34 %
16.04.2026 09:00 12,9 °C 14,9 °C 8,5 °C 95 % 1021,8 hPa 0,0 l/m² 0,43 h 230 W/m² 7,3 km/h (2 Bft) 95,43 %
16.04.2026 10:00 15,0 °C 17,6 °C 12,3 °C 87 % 1021,9 hPa 0,0 l/m² 0,97 h 512 W/m² 8,5 km/h (2 Bft) 96,17 %
16.04.2026 11:00 16,1 °C 18,1 °C 13,3 °C 77 % 1022,0 hPa 0,0 l/m² 0,27 h 318 W/m² 7,5 km/h (2 Bft) 97,04 %
16.04.2026 12:00 17,6 °C 20,5 °C 16,0 °C 70 % 1022,2 hPa 0,0 l/m² 0,65 h 452 W/m² 8,9 km/h (2 Bft) 99,10 %
16.04.2026 13:00 18,1 °C 21,5 °C 16,1 °C 68 % 1022,1 hPa 0,0 l/m² 0,60 h 428 W/m² 8,8 km/h (2 Bft) 97,30 %
16.04.2026 14:00 19,0 °C 23,0 °C 15,7 °C 64 % 1022,1 hPa 0,0 l/m² 0,67 h 546 W/m² 8,6 km/h (2 Bft) 96,02 %
16.04.2026 15:00 20,0 °C 24,3 °C 16,2 °C 62 % 1021,9 hPa 0,0 l/m² 0,87 h 497 W/m² 8,1 km/h (2 Bft) 98,35 %
16.04.2026 16:00 20,4 °C 23,0 °C 16,4 °C 61 % 1021,6 hPa 0,0 l/m² 0,50 h 394 W/m² 7,4 km/h (2 Bft) 98,22 %
16.04.2026 17:00 20,0 °C 22,8 °C 15,9 °C 61 % 1021,4 hPa 0,0 l/m² 0,60 h 320 W/m² 7,2 km/h (2 Bft) 96,28 %
16.04.2026 18:00 20,6 °C 21,7 °C 15,6 °C 60 % 1021,4 hPa 0,0 l/m² 0,53 h 179 W/m² 4,1 km/h (1 Bft) 98,45 %
16.04.2026 19:00 18,8 °C 17,3 °C 13,4 °C 66 % 1021,3 hPa 0,0 l/m² 0,00 h 34 W/m² 1,2 km/h (1 Bft) 96,78 %
16.04.2026 20:00 17,7 °C 15,5 °C 11,7 °C 73 % 1021,5 hPa 0,0 l/m² 0,00 h 8 W/m² 0,1 km/h (0 Bft) 97,77 %
16.04.2026 21:00 16,5 °C 14,5 °C 10,8 °C 78 % 1022,1 hPa 0,0 l/m² 0,00 h 0 W/m² 0,1 km/h (0 Bft) 97,81 %
16.04.2026 22:00 15,2 °C 13,2 °C 9,5 °C 81 % 1022,2 hPa 0,0 l/m² 0,00 h 0 W/m² 0,7 km/h (0 Bft) 96,37 %
16.04.2026 23:00 14,2 °C 13,0 °C 9,4 °C 83 % 1022,4 hPa 0,0 l/m² 0,00 h 0 W/m² 0,7 km/h (0 Bft) 97,62 %
17.04.2026 00:00 13,8 °C 12,5 °C 9,0 °C 82 % 1022,5 hPa 0,0 l/m² 0,00 h 0 W/m² 0,3 km/h (0 Bft) 96,87 %
17.04.2026 01:00 13,0 °C 11,1 °C 7,7 °C 83 % 1022,5 hPa 0,0 l/m² 0,00 h 0 W/m² 0,5 km/h (0 Bft) 96,11 %
17.04.2026 02:00 11,8 °C 10,1 °C 6,8 °C 86 % 1022,4 hPa 0,0 l/m² 0,00 h 0 W/m² 0,5 km/h (0 Bft) 97,23 %
17.04.2026 03:00 11,0 °C 9,9 °C 6,7 °C 88 % 1022,2 hPa 0,0 l/m² 0,00 h 0 W/m² 0,9 km/h (0 Bft) 98,20 %
17.04.2026 04:00 10,7 °C 9,8 °C 6,6 °C 89 % 1022,1 hPa 0,0 l/m² 0,00 h 0 W/m² 0,2 km/h (0 Bft) 97,47 %
17.04.2026 05:00 10,3 °C 9,0 °C 5,8 °C 89 % 1022,1 hPa 0,0 l/m² 0,00 h 0 W/m² 0,6 km/h (0 Bft) 95,04 %
17.04.2026 06:00 9,7 °C 8,3 °C 5,3 °C 90 % 1022,0 hPa 0,0 l/m² 0,00 h 9 W/m² 0,0 km/h (0 Bft) 98,62 %
17.04.2026 07:00 9,4 °C 8,7 °C 5,5 °C 91 % 1022,0 hPa 0,0 l/m² 0,00 h 28 W/m² 0,9 km/h (0 Bft) 95,52 %
17.04.2026 08:00 10,3 °C 11,4 °C 7,4 °C 93 % 1022,4 hPa 0,0 l/m² 0,33 h 141 W/m² 1,3 km/h (1 Bft) 97,57 %
17.04.2026 09:00 13,6 °C 19,9 °C 10,4 °C 86 % 1022,4 hPa 0,0 l/m² 1,00 h 386 W/m² 3,7 km/h (1 Bft) 98,01 %
17.04.2026 10:00 16,2 °C 18,3 °C 12,7 °C 78 % 1022,5 hPa 0,0 l/m² 0,90 h 338 W/m² 6,7 km/h (2 Bft) 96,83 %
17.04.2026 11:00 17,4 °C 20,1 °C 14,8 °C 71 % 1022,6 hPa 0,0 l/m² 0,63 h 443 W/m² 8,5 km/h (2 Bft) 95,41 %
17.04.2026 12:00 19,6 °C 25,7 °C 19,3 °C 60 % 1022,4 hPa 0,0 l/m² 0,98 h 590 W/m² 9,7 km/h (2 Bft) 99,01 %
17.04.2026 13:00 20,5 °C 26,6 °C 20,1 °C 56 % 1022,1 hPa 0,0 l/m² 0,93 h 648 W/m² 7,7 km/h (2 Bft) 96,84 %
17.04.2026 14:00 21,6 °C 28,0 °C 17,7 °C 55 % 1021,7 hPa 0,0 l/m² 0,90 h 667 W/m² 7,9 km/h (2 Bft) 98,31 %
17.04.2026 15:00 22,0 °C 26,4 °C 17,8 °C 52 % 1021,4 hPa 0,0 l/m² 0,90 h 567 W/m² 9,7 km/h (2 Bft) 96,49 %
17.04.2026 16:00 21,3 °C 23,3 °C 17,1 °C 54 % 1021,0 hPa 0,0 l/m² 0,67 h 374 W/m² 8,6 km/h (2 Bft) 98,17 %
17.04.2026 17:00 21,5 °C 24,5 °C 17,5 °C 54 % 1020,7 hPa 0,0 l/m² 1,00 h 368 W/m² 8,2 km/h (2 Bft) 99,11 %
17.04.2026 18:00 21,2 °C 22,3 °C 16,6 °C 55 % 1020,6 hPa 0,0 l/m² 0,70 h 188 W/m² 5,1 km/h (1 Bft) 95,20 %
17.04.2026 19:00 19,9 °C 19,0 °C 14,9 °C 58 % 1020,7 hPa 0,0 l/m² 0,00 h 65 W/m² 2,3 km/h (1 Bft) 98,90 %
17.04.2026 20:00 18,6 °C 16,2 °C 12,2 °C 65 % 1021,0 hPa 0,0 l/m² 0,20 h 16 W/m² 0,2 km/h (0 Bft) 97,84 %
17.04.2026 21:00 16,4 °C 13,7 °C 10,0 °C 74 % 1021,3 hPa 0,0 l/m² 0,00 h 0 W/m² 0,0 km/h (0 Bft) 95,97 %
17.04.2026 22:00 14,5 °C 12,3 °C 8,8 °C 79 % 1021,3 hPa 0,0 l/m² 0,00 h 0 W/m² 0,0 km/h (0 Bft) 98,65 %
17.04.2026 23:00 13,2 °C 11,0 °C 7,7 °C 83 % 1021,3 hPa 0,0 l/m² 0,00 h 0 W/m² 0,0 km/h (0 Bft) 97,58 %
18.04.2026 00:00 12,1 °C 10,2 °C 6,9 °C 86 % 1021,3 hPa 0,0 l/m² 0,00 h 0 W/m² 0,0 km/h (0 Bft) 97,11 %
18.04.2026 01:00 11,2 °C 9,6 °C 6,4 °C 88 % 1021,3 hPa 0,0 l/m² 0,00 h 0 W/m² 0,0 km/h (0 Bft) 96,78 %
18.04.2026 02:00 10,5 °C 9,1 °C 5,9 °C 90 % 1021,2 hPa 0,0 l/m² 0,00 h 0 W/m² 0,8 km/h (0 Bft) 97,04 %
18.04.2026 03:00 10,0 °C 8,6 °C 5,6 °C 91 % 1021,0 hPa 0,0 l/m² 0,00 h 0 W/m² 0,2 km/h (0 Bft) 97,16 %
18.04.2026 04:00 9,4 °C 8,2 °C 5,1 °C 91 % 1021,1 hPa 0,0 l/m² 0,00 h 0 W/m² 0,0 km/h (0 Bft) 96,31 %
18.04.2026 05:00 9,6 °C 9,1 °C 6,1 °C 93 % 1021,1 hPa 0,0 l/m² 0,00 h 0 W/m² 0,0 km/h (0 Bft) 96,19 %
18.04.2026 06:00 10,1 °C 9,9 °C 6,9 °C 93 % 1021,0 hPa 0,0 l/m² 0,00 h 4 W/m² 0,0 km/h (0 Bft) 96,00 %
18.04.2026 07:00 10,5 °C 10,4 °C 7,2 °C 93 % 1021,1 hPa 0,0 l/m² 0,00 h 14 W/m² 1,0 km/h (0 Bft) 98,51 %
18.04.2026 08:00 11,3 °C 11,7 °C 7,8 °C 92 % 1021,2 hPa 0,0 l/m² 0,17 h 109 W/m² 0,5 km/h (0 Bft) 96,60 %
18.04.2026 09:00 13,7 °C 19,0 °C 10,8 °C 86 % 1021,1 hPa 0,0 l/m² 0,97 h 337 W/m² 0,9 km/h (0 Bft) 95,93 %
18.04.2026 10:00 16,1 °C 18,6 °C 13,6 °C 78 % 1021,2 hPa 0,0 l/m² 0,70 h 376 W/m² 0,0 km/h (0 Bft) 98,79 %
18.04.2026 11:00 18,8 °C 23,0 °C 16,6 °C 70 % 1021,1 hPa 0,0 l/m² 1,00 h 653 W/m² 4,6 km/h (1 Bft) 97,51 %
18.04.2026 12:00 20,4 °C 24,0 °C 19,4 °C 63 % 1020,9 hPa 0,0 l/m² 0,53 h 449 W/m² 10,9 km/h (2 Bft) 99,51 %
18.04.2026 13:00 20,1 °C 22,1 °C 17,5 °C 63 % 1020,6 hPa 0,0 l/m² 0,43 h 376 W/m² 10,4 km/h (2 Bft) 96,00 %
18.04.2026 14:00 19,7 °C 19,4 °C 15,6 °C 63 % 1020,6 hPa 0,0 l/m² 0,00 h 141 W/m² 10,1 km/h (2 Bft) 97,95 %
18.04.2026 15:00 18,2 °C 17,9 °C 14,0 °C 69 % 1020,8 hPa 0,0 l/m² 0,00 h 122 W/m² 13,2 km/h (3 Bft) 97,74 %
18.04.2026 16:00 18,0 °C 17,8 °C 13,7 °C 72 % 1020,7 hPa 0,0 l/m² 0,00 h 115 W/m² 8,3 km/h (2 Bft) 98,43 %
18.04.2026 17:00 16,8 °C 16,1 °C 12,4 °C 78 % 1020,8 hPa 0,0 l/m² 0,00 h 75 W/m² 9,9 km/h (2 Bft) 96,29 %
18.04.2026 18:00 15,7 °C 14,8 °C 11,0 °C 86 % 1020,7 hPa 0,2 l/m² 0,00 h 53 W/m² 4,1 km/h (1 Bft) 98,09 %
18.04.2026 19:00 15,1 °C 14,3 °C 10,5 °C 90 % 1020,6 hPa 0,2 l/m² 0,00 h 34 W/m² 2,2 km/h (1 Bft) 97,51 %
18.04.2026 20:00 14,5 °C 13,6 °C 10,2 °C 90 % 1020,7 hPa 0,0 l/m² 0,00 h 10 W/m² 3,2 km/h (1 Bft) 95,98 %
18.04.2026 21:00 14,3 °C 13,3 °C 9,8 °C 92 % 1021,0 hPa 0,0 l/m² 0,00 h 0 W/m² 1,5 km/h (1 Bft) 97,86 %
18.04.2026 22:00 14,0 °C 13,0 °C 9,4 °C 92 % 1020,7 hPa 0,0 l/m² 0,00 h 0 W/m² 4,4 km/h (1 Bft) 95,74 %
18.04.2026 23:00 13,6 °C 12,7 °C 9,2 °C 93 % 1020,4 hPa 0,0 l/m² 0,00 h 0 W/m² 8,5 km/h (2 Bft) 96,93 %
19.04.2026 00:00 12,4 °C 11,8 °C 8,1 °C 92 % 1020,4 hPa 0,0 l/m² 0,00 h 0 W/m² 14,9 km/h (3 Bft) 97,31 %
19.04.2026 01:00 11,8 °C 11,0 °C 7,4 °C 92 % 1020,5 hPa 2,9 l/m² 0,00 h 0 W/m² 11,5 km/h (2 Bft) 96,01 %
19.04.2026 02:00 11,2 °C 10,1 °C 6,5 °C 94 % 1020,3 hPa 3,4 l/m² 0,00 h 0 W/m² 8,6 km/h (2 Bft) 98,65 %
19.04.2026 03:00 10,3 °C 9,4 °C 5,7 °C 95 % 1020,3 hPa 1,0 l/m² 0,00 h 0 W/m² 7,1 km/h (2 Bft) 96,33 %
19.04.2026 04:00 9,5 °C 8,7 °C 5,1 °C 96 % 1020,3 hPa 0,5 l/m² 0,00 h 0 W/m² 13,7 km/h (3 Bft) 96,99 %
19.04.2026 05:00 9,0 °C 8,0 °C 4,3 °C 96 % 1020,5 hPa 0,0 l/m² 0,00 h 0 W/m² 9,5 km/h (2 Bft) 98,09 %
19.04.2026 06:00 8,3 °C 7,3 °C 3,9 °C 96 % 1020,7 hPa 0,0 l/m² 0,00 h 5 W/m² 12,3 km/h (3 Bft) 98,09 %
19.04.2026 07:00 8,2 °C 7,8 °C 4,0 °C 97 % 1021,0 hPa 0,0 l/m² 0,00 h 32 W/m² 9,7 km/h (2 Bft) 97,30 %
19.04.2026 08:00 8,3 °C 8,1 °C 3,9 °C 97 % 1021,4 hPa 0,0 l/m² 0,07 h 69 W/m² 9,1 km/h (2 Bft) 96,91 %
19.04.2026 09:00 9,7 °C 17,0 °C 5,6 °C 96 % 1021,5 hPa 0,0 l/m² 0,97 h 396 W/m² 7,7 km/h (2 Bft) 97,67 %
19.04.2026 10:00 12,5 °C 16,3 °C 9,3 °C 83 % 1021,7 hPa 0,0 l/m² 1,00 h 564 W/m² 14,1 km/h (3 Bft) 98,86 %
19.04.2026 11:00 14,0 °C 16,2 °C 10,6 °C 73 % 1021,7 hPa 0,0 l/m² 0,53 h 485 W/m² 17,4 km/h (3 Bft) 97,73 %
19.04.2026 12:00 14,8 °C 19,7 °C 14,2 °C 68 % 1021,6 hPa 0,0 l/m² 0,33 h 460 W/m² 18,4 km/h (3 Bft) 99,71 %
19.04.2026 13:00 14,1 °C 15,4 °C 11,4 °C 69 % 1021,8 hPa 0,0 l/m² 0,20 h 299 W/m² 21,6 km/h (4 Bft) 96,53 %
19.04.2026 14:00 14,0 °C 18,7 °C 10,6 °C 74 % 1022,0 hPa 0,0 l/m² 0,60 h 524 W/m² 15,9 km/h (3 Bft) 97,86 %
19.04.2026 15:00 16,1 °C 20,1 °C 12,6 °C 65 % 1021,7 hPa 0,0 l/m² 0,80 h 549 W/m² 20,1 km/h (4 Bft) 96,43 %
19.04.2026 16:00 17,0 °C 21,1 °C 13,4 °C 57 % 1021,3 hPa 0,0 l/m² 0,80 h 516 W/m² 27,3 km/h (4 Bft) 97,55 %
19.04.2026 17:00 16,3 °C 18,7 °C 12,6 °C 56 % 1021,3 hPa 0,0 l/m² 0,57 h 312 W/m² 23,7 km/h (4 Bft) 97,66 %
19.04.2026 18:00 15,9 °C 18,3 °C 12,3 °C 56 % 1021,3 hPa 0,0 l/m² 0,63 h 240 W/m² 19,3 km/h (3 Bft) 96,88 %
19.04.2026 19:00 13,7 °C 13,0 °C 9,4 °C 65 % 1021,3 hPa 0,0 l/m² 0,00 h 29 W/m² 16,4 km/h (3 Bft) 97,41 %
19.04.2026 20:00 12,0 °C 10,9 °C 7,5 °C 71 % 1021,8 hPa 0,0 l/m² 0,00 h 10 W/m² 12,4 km/h (3 Bft) 98,69 %
19.04.2026 21:00 10,7 °C 9,6 °C 6,5 °C 76 % 1022,3 hPa 0,0 l/m² 0,00 h 0 W/m² 9,9 km/h (2 Bft) 97,64 %
19.04.2026 22:00 9,9 °C 8,8 °C 5,7 °C 79 % 1022,5 hPa 0,0 l/m² 0,00 h 0 W/m² 9,4 km/h (2 Bft) 96,91 %
19.04.2026 23:00 9,1 °C 7,9 °C 4,8 °C 82 % 1022,7 hPa 0,0 l/m² 0,00 h 0 W/m² 7,0 km/h (2 Bft) 98,15 %
Min-Datum _ 14.04.26 14.04.26 14.04.26 15.04.26 13.04.26 - - - 13.04.26 13.04.26
_ Min-Zeit 07:00 06:20 06:04 13:56 11:42 - - - 00:00 06:40
Minimum _ 2,7 °C 1,7 °C -1,1 °C 44 % 1013,1 hPa - - - 0,0 km/h (0 Bft) 37,14 %
Max-Datum _ 17.04.26 17.04.26 18.04.26 14.04.26 14.04.26 19.04.26 14.04.26 19.04.26 19.04.26 13.04.26
_ Max-Zeit 15:26 14:32 12:28 09:14 23:46 02:02 08:52 13:02 13:26 00:00
Maximum _ 22,4 °C 31,1 °C 23,3 °C 98 % 1023,4 hPa 3,4 l/m² 0,03 h 1042 W/m² 48,3 km/h
N-NW (6 Bft)
100,00 %
Durchschnitt _ 13,0 °C 13,5 °C 9,0 °C 78 % 1020,1 hPa #10,3 l/m² #42:50 h 267 W/m² 6,1 km/h (2 Bft) 97,31 %
© 2026 W. Hausmann